Lobeco, South Carolina
Current Conditions -  °F | °C
As of 10:56 AM on Sunday 23 Nov 2014 (Local Time) from KNBC Reporting Station
Light Rain Light Rain  
Wind Chill: 62°   Ceiling: 500
Heat Index: 62°   Visibility: 8mi
Dew Point: 60°   Wind: 13mph
Humidity: 93%   Direction: 90°E
Pressure: 30.06"   Gusts: NA
Location:  32.55°N, 80.74°W
Report Text: KNBC 231556Z AUTO 09011KT 8SM -RA OVC005 17/16 A3006 RMK AO2 RAE22B47 CIG 003V009 SLP178 P0004 T01670156 $
Loading
Personal Weather Stations






























Interactive Weather Map New forecast layout! Learn more

10-Day Weather Forecast

Advertisements
Track Severe Weather on mobile